Weather History for Spearfish, SD

Change the Weather History Date:

Sunday, February 3, 2013

  Actual Average (KEFC) Record (KEFC)
Temperature  
Mean Temperature 41 °F -  
Max Temperature 50 °F 35 °F 71 °F (1962)
Min Temperature 32 °F 11 °F -32 °F (1989)
Degree Days  
Heating Degree Days 24    
Moisture  
Dew Point 19 °F    
Average Humidity 45    
Maximum Humidity 69    
Minimum Humidity 24    
Precipitation  
Precipitation 0.00 in - - ()
Sea Level Pressure  
Sea Level Pressure 29.92 in    
Wind  
Wind Speed 13 mph (West)    
Max Wind Speed 24 mph    
Max Gust Speed 34 mph    
Visibility 10 miles    
Events      
Averages and records for this station are not official NWS values.
T = Trace of Precipitation, MM = Missing Value Source: NWS Daily Summary

Daily Weather History Graph

Daily Weather History Graph

Search for Another Location

Airport:

Trip Planner

Search our weather history database for the weather conditions in past years. The results will help you decide how hot, cold, wet, or windy it might be!

Date:

Astronomy

Feb. 03, 2013 Rise Set
Actual Time 8:10 AM CST 6:07 PM CST
Civil Twilight 7:40 AM CST 6:38 PM CST
Nautical Twilight 7:05 AM CST 7:13 PM CST
Astronomical Twilight 6:31 AM CST 7:47 PM CST
Moon 1:42 AM CST (2/3) 11:44 AM CST (2/3)
Length of Visible Light 10h 58m
Length of Day
9h 56m
Waning Gibbous, 48% of the Moon is Illuminated
Feb 3
Waning Gibbous
Feb 10
New
Feb 17
First Quarter
Feb 25
Full
Mar 4
Last Quarter

Hourly Weather History & Observations

Time (CST) Temp. Windchill Dew Point Humidity Pressure Visibility Wind Dir Wind Speed Gust Speed Precip Events Conditions
12:15 AM 32.0 °F 24.2 °F 23.0 °F 69% 30.15 in 10.0 mi West 9.2 mph - N/A   Clear
12:35 AM 33.8 °F 25.3 °F 23.0 °F 65% 30.14 in 10.0 mi West 11.5 mph - N/A   Clear
1:15 AM 35.6 °F 27.5 °F 23.0 °F 60% 30.11 in 10.0 mi West 11.5 mph 17.3 mph N/A   Clear
1:35 AM 35.6 °F 27.1 °F 23.0 °F 60% 30.11 in 10.0 mi WSW 12.7 mph 20.7 mph N/A   Clear
1:55 AM 35.6 °F 27.1 °F 23.0 °F 60% 30.10 in 10.0 mi West 12.7 mph 18.4 mph N/A   Clear
2:15 AM 35.6 °F 25.5 °F 21.2 °F 56% 30.08 in 10.0 mi WSW 17.3 mph - N/A   Clear
2:35 AM 35.6 °F 27.1 °F 21.2 °F 56% 30.08 in 10.0 mi West 12.7 mph 17.3 mph N/A   Clear
2:55 AM 35.6 °F 27.1 °F 21.2 °F 56% 30.07 in 10.0 mi West 12.7 mph - N/A   Clear
3:55 AM 35.6 °F 26.6 °F 19.4 °F 52% 30.04 in 10.0 mi WSW 13.8 mph 17.3 mph N/A   Clear
4:15 AM 35.6 °F 26.2 °F 19.4 °F 52% 30.03 in 10.0 mi WSW 15.0 mph - N/A   Clear
4:35 AM 35.6 °F 25.9 °F 19.4 °F 52% 30.02 in 10.0 mi West 16.1 mph - N/A   Clear
4:55 AM 35.6 °F 26.2 °F 19.4 °F 52% 30.02 in 10.0 mi West 15.0 mph - N/A   Clear
5:15 AM 35.6 °F 26.6 °F 19.4 °F 52% 30.01 in 10.0 mi West 13.8 mph 21.9 mph N/A   Clear
5:35 AM 35.6 °F 25.5 °F 19.4 °F 52% 29.99 in 10.0 mi WSW 17.3 mph 21.9 mph N/A   Clear
5:55 AM 35.6 °F 25.5 °F 19.4 °F 52% 29.99 in 10.0 mi WSW 17.3 mph 20.7 mph N/A   Clear
6:15 AM 35.6 °F 25.9 °F 19.4 °F 52% 29.99 in 10.0 mi West 16.1 mph - N/A   Clear
6:35 AM 35.6 °F 26.2 °F 19.4 °F 52% 29.98 in 10.0 mi West 15.0 mph 19.6 mph N/A   Clear
6:55 AM 35.6 °F 26.6 °F 19.4 °F 52% 29.97 in 10.0 mi West 13.8 mph - N/A   Clear
7:15 AM 35.6 °F 26.6 °F 19.4 °F 52% 29.96 in 10.0 mi West 13.8 mph - N/A   Clear
7:35 AM 35.6 °F 27.1 °F 17.6 °F 48% 29.95 in 10.0 mi West 12.7 mph - N/A   Clear
7:55 AM 35.6 °F 28.0 °F 17.6 °F 48% 29.95 in 10.0 mi West 10.4 mph - N/A   Clear
8:15 AM 35.6 °F 28.0 °F 17.6 °F 48% 29.93 in 10.0 mi West 10.4 mph - N/A   Clear
8:35 AM 37.4 °F 30.8 °F 17.6 °F 45% 29.93 in 10.0 mi West 9.2 mph - N/A   Clear
8:55 AM 39.2 °F 32.0 °F 17.6 °F 42% 29.92 in 10.0 mi WSW 11.5 mph - N/A   Clear
9:15 AM 41.0 °F 33.1 °F 17.6 °F 39% 29.91 in 10.0 mi WSW 15.0 mph 20.7 mph N/A   Clear
9:35 AM 41.0 °F 32.8 °F 17.6 °F 39% 29.90 in 10.0 mi WSW 16.1 mph 19.6 mph N/A   Clear
9:55 AM 44.6 °F 37.8 °F 17.6 °F 34% 29.88 in 10.0 mi WSW 15.0 mph 20.7 mph N/A   Clear
10:15 AM 44.6 °F 38.4 °F 17.6 °F 34% 29.88 in 10.0 mi West 12.7 mph 23.0 mph N/A   Clear
10:35 AM 46.4 °F 41.1 °F 15.8 °F 29% 29.87 in 10.0 mi West 11.5 mph 18.4 mph N/A   Clear
10:55 AM 48.2 °F - 15.8 °F 27% 29.87 in 10.0 mi West 12.7 mph 17.3 mph N/A   Clear
11:15 AM 48.2 °F - 15.8 °F 27% 29.86 in 10.0 mi West 15.0 mph 20.7 mph N/A   Clear
11:35 AM 48.2 °F - 14.0 °F 25% 29.85 in 10.0 mi West 15.0 mph 24.2 mph N/A   Clear
11:55 AM 48.2 °F - 15.8 °F 27% 29.86 in 10.0 mi West 18.4 mph 21.9 mph N/A   Clear
12:15 PM 48.2 °F - 14.0 °F 25% 29.85 in 10.0 mi West 17.3 mph 29.9 mph N/A   Clear
12:35 PM 50.0 °F - 15.8 °F 26% 29.84 in 10.0 mi West 17.3 mph 26.5 mph N/A   Clear
12:55 PM 50.0 °F - 14.0 °F 24% 29.83 in 10.0 mi WNW 19.6 mph 28.8 mph N/A   Clear
1:15 PM 48.2 °F - 14.0 °F 25% 29.83 in 10.0 mi West 18.4 mph 24.2 mph N/A   Clear
1:35 PM 50.0 °F - 14.0 °F 24% 29.83 in 10.0 mi West 17.3 mph 21.9 mph N/A   Clear
1:55 PM 50.0 °F - 15.8 °F 26% 29.82 in 10.0 mi West 19.6 mph 26.5 mph N/A   Clear
2:15 PM 50.0 °F - 14.0 °F 24% 29.81 in 10.0 mi West 21.9 mph 34.5 mph N/A   Clear
2:35 PM 48.2 °F - 15.8 °F 27% 29.82 in 10.0 mi NW 24.2 mph 34.5 mph N/A   Clear
2:55 PM 48.2 °F - 15.8 °F 27% 29.83 in 10.0 mi NW 17.3 mph 34.5 mph N/A   Clear
3:15 PM 46.4 °F 38.7 °F 15.8 °F 29% 29.84 in 10.0 mi NW 20.7 mph 31.1 mph N/A   Clear
3:35 PM 46.4 °F 39.2 °F 17.6 °F 32% 29.84 in 10.0 mi NW 18.4 mph 31.1 mph N/A   Clear
3:55 PM 46.4 °F 39.8 °F 17.6 °F 32% 29.84 in 10.0 mi NW 16.1 mph 27.6 mph N/A   Clear
4:35 PM 42.8 °F 35.8 °F 17.6 °F 36% 29.84 in 10.0 mi WNW 13.8 mph 19.6 mph N/A   Clear
4:55 PM 42.8 °F 34.8 °F 17.6 °F 36% 29.84 in 10.0 mi WNW 17.3 mph 23.0 mph N/A   Clear
5:15 PM 41.0 °F 32.8 °F 19.4 °F 42% 29.85 in 10.0 mi WNW 16.1 mph 25.3 mph N/A   Clear
5:35 PM 41.0 °F 32.2 °F 19.4 °F 42% 29.85 in 10.0 mi WNW 18.4 mph 27.6 mph N/A   Partly Cloudy
5:55 PM 41.0 °F 33.5 °F 19.4 °F 42% 29.85 in 10.0 mi WNW 13.8 mph 23.0 mph N/A   Partly Cloudy
6:15 PM 41.0 °F 32.8 °F 19.4 °F 42% 29.86 in 10.0 mi WNW 16.1 mph 26.5 mph N/A   Mostly Cloudy
6:35 PM 39.2 °F 31.2 °F 19.4 °F 45% 29.87 in 10.0 mi NW 13.8 mph 21.9 mph N/A   Mostly Cloudy
6:55 PM 37.4 °F 31.4 °F 19.4 °F 48% 29.87 in 10.0 mi WNW 8.1 mph - N/A   Clear
7:15 PM 39.2 °F 30.5 °F 19.4 °F 45% 29.88 in 10.0 mi WNW 16.1 mph - N/A   Clear
7:35 PM 37.4 °F 29.3 °F 19.4 °F 48% 29.89 in 10.0 mi WNW 12.7 mph 17.3 mph N/A   Clear
7:55 PM 37.4 °F 30.8 °F 19.4 °F 48% 29.89 in 10.0 mi West 9.2 mph - N/A   Clear
8:15 PM 37.4 °F 29.8 °F 19.4 °F 48% 29.90 in 10.0 mi WNW 11.5 mph 19.6 mph N/A   Clear
8:35 PM 35.6 °F 27.5 °F 19.4 °F 52% 29.90 in 10.0 mi West 11.5 mph - N/A   Clear
8:55 PM 35.6 °F 28.0 °F 21.2 °F 56% 29.89 in 10.0 mi West 10.4 mph - N/A   Clear
9:15 PM 35.6 °F 28.6 °F 21.2 °F 56% 29.90 in 10.0 mi West 9.2 mph - N/A   Clear
9:35 PM 35.6 °F 28.6 °F 21.2 °F 56% 29.90 in 10.0 mi West 9.2 mph - N/A   Clear
9:55 PM 35.6 °F 28.6 °F 21.2 °F 56% 29.90 in 10.0 mi West 9.2 mph - N/A   Clear
10:15 PM 35.6 °F 29.9 °F 23.0 °F 60% 29.90 in 10.0 mi WNW 6.9 mph - N/A   Clear
10:35 PM 35.6 °F 28.6 °F 23.0 °F 60% 29.90 in 10.0 mi WNW 9.2 mph - N/A   Mostly Cloudy
10:55 PM 35.6 °F 27.5 °F 23.0 °F 60% 29.90 in 10.0 mi WNW 11.5 mph - N/A   Overcast
11:15 PM 35.6 °F 27.5 °F 23.0 °F 60% 29.90 in 10.0 mi WNW 11.5 mph - N/A   Scattered Clouds
11:35 PM 35.6 °F 28.6 °F 23.0 °F 60% 29.90 in 10.0 mi WNW 9.2 mph - N/A   Partly Cloudy
11:55 PM 33.8 °F 27.7 °F 23.0 °F 65% 29.91 in 10.0 mi WNW 6.9 mph - N/A   Clear